Time;durP1;ratioP1;P1;durP2;ratioP2;P2;SDS_P1;SDS_P2;PMS_P1;PMS_P2;Temp;Humidity;BMP_temperature;BMP_pressure;BME280_temperature;BME280_humidity;BME280_pressure;Samples;Min_cycle;Max_cycle;Signal;HPM_P1;HPM_P2
2021/09/19 00:01:31;;;;;;;3.05;1.58;;;19.00;60.70;;;;;;5006764;28;20018;-67
2021/09/19 00:03:58;;;;;;;5.80;1.52;;;19.10;59.90;;;;;;5005711;28;20029;-65
2021/09/19 00:06:26;;;;;;;2.90;1.50;;;19.10;61.40;;;;;;5004679;28;20041;-66
2021/09/19 00:08:54;;;;;;;4.75;1.67;;;19.20;58.90;;;;;;5009853;28;20503;-71
2021/09/19 00:11:23;;;;;;;5.47;1.77;;;19.20;60.60;;;;;;5013567;28;20034;-67
2021/09/19 00:13:51;;;;;;;5.07;1.73;;;19.20;61.50;;;;;;5011333;28;20014;-65
2021/09/19 00:16:18;;;;;;;5.15;2.20;;;19.30;56.50;;;;;;5012821;28;20078;-69
2021/09/19 00:18:45;;;;;;;3.30;2.05;;;19.40;60.20;;;;;;5013958;28;20026;-70
2021/09/19 00:21:13;;;;;;;4.05;1.42;;;19.40;59.90;;;;;;5013925;28;20017;-68
2021/09/19 00:23:41;;;;;;;2.80;1.60;;;19.50;58.80;;;;;;5013733;28;20048;-64
2021/09/19 00:26:08;;;;;;;3.50;1.30;;;19.60;57.30;;;;;;5012522;28;20373;-71
2021/09/19 00:28:35;;;;;;;3.15;1.52;;;19.70;56.40;;;;;;5013534;28;20037;-70
2021/09/19 00:31:03;;;;;;;4.13;1.80;;;19.60;60.30;;;;;;5013209;28;20040;-73
2021/09/19 00:33:31;;;;;;;3.58;1.15;;;19.60;58.90;;;;;;5011781;28;20337;-73
2021/09/19 00:35:58;;;;;;;5.03;1.67;;;19.70;59.00;;;;;;5012059;28;20031;-73
2021/09/19 00:38:25;;;;;;;6.95;1.63;;;19.60;57.30;;;;;;5012884;28;20034;-74
2021/09/19 00:40:53;;;;;;;3.40;1.40;;;19.70;56.70;;;;;;5011779;28;20132;-68
2021/09/19 00:43:20;;;;;;;4.38;1.30;;;19.60;59.60;;;;;;5012557;28;20030;-74
2021/09/19 00:45:48;;;;;;;4.82;1.48;;;19.60;58.00;;;;;;5010852;28;20388;-68
2021/09/19 00:48:15;;;;;;;3.15;1.30;;;19.70;55.30;;;;;;5011963;28;20029;-74
2021/09/19 00:50:42;;;;;;;4.95;1.30;;;19.70;59.00;;;;;;5011829;28;20072;-73
2021/09/19 00:53:12;;;;;;;3.35;1.40;;;19.90;56.30;;;;;;4994594;28;20465;-64
2021/09/19 00:55:42;;;;;;;4.05;1.40;;;19.90;58.10;;;;;;5012291;28;20099;-71
2021/09/19 00:58:11;;;;;;;5.45;1.10;;;20.00;56.80;;;;;;5011894;28;20144;-73
2021/09/19 01:00:42;;;;;;;3.28;1.20;;;20.00;57.70;;;;;;5010532;28;20101;-71
2021/09/19 01:03:09;;;;;;;2.90;1.45;;;19.90;57.60;;;;;;5010893;28;20018;-71
2021/09/19 01:05:37;;;;;;;6.90;1.63;;;19.80;57.80;;;;;;5010151;28;20052;-74
2021/09/19 01:08:05;;;;;;;3.10;1.13;;;20.00;54.90;;;;;;5011332;28;20472;-71
2021/09/19 01:10:32;;;;;;;4.60;1.30;;;20.10;52.30;;;;;;5012539;28;20025;-66
2021/09/19 01:13:00;;;;;;;4.13;1.48;;;20.10;56.90;;;;;;5016376;28;20449;-72
2021/09/19 01:15:28;;;;;;;3.25;1.23;;;20.20;53.20;;;;;;5014827;28;20030;-70
2021/09/19 01:17:55;;;;;;;5.20;1.50;;;20.30;55.00;;;;;;4999255;28;20434;-76
2021/09/19 01:20:23;;;;;;;3.63;1.40;;;20.40;55.90;;;;;;5018335;28;20014;-74
2021/09/19 01:23:08;;;;;;;3.75;1.50;;;20.40;53.20;;;;;;5018159;28;20133;-73
2021/09/19 01:25:37;;;;;;;1.92;1.00;;;20.50;54.70;;;;;;4999910;28;20380;-71
2021/09/19 01:28:05;;;;;;;2.60;1.20;;;20.50;54.80;;;;;;5018123;28;20030;-73
2021/09/19 01:30:33;;;;;;;3.90;1.42;;;20.50;53.60;;;;;;5016048;28;20030;-65
2021/09/19 01:33:01;;;;;;;3.92;1.27;;;20.50;54.60;;;;;;5015595;28;20480;-71
2021/09/19 01:35:29;;;;;;;4.15;1.55;;;20.40;54.20;;;;;;4995788;28;20452;-74
2021/09/19 01:37:58;;;;;;;3.13;1.17;;;20.40;54.90;;;;;;5012438;28;20049;-61
2021/09/19 01:40:27;;;;;;;2.28;1.20;;;20.40;54.60;;;;;;5014902;28;20078;-68
2021/09/19 01:42:54;;;;;;;3.47;1.13;;;20.50;52.50;;;;;;5016612;28;20057;-75
2021/09/19 01:45:22;;;;;;;3.90;1.45;;;20.60;54.30;;;;;;5000718;28;20399;-73
2021/09/19 01:47:53;;;;;;;10.35;1.40;;;20.50;54.40;;;;;;5014630;28;20033;-76
2021/09/19 01:50:22;;;;;;;5.15;1.30;;;20.70;52.50;;;;;;5013676;28;20048;-69
2021/09/19 01:52:51;;;;;;;5.63;1.27;;;20.70;53.60;;;;;;5015143;28;20045;-71
2021/09/19 01:55:18;;;;;;;5.22;1.40;;;20.70;53.00;;;;;;5013782;28;20026;-67
2021/09/19 01:57:48;;;;;;;8.20;1.30;;;20.80;53.70;;;;;;5013386;28;20461;-74
2021/09/19 02:00:16;;;;;;;3.50;1.63;;;20.70;51.00;;;;;;5013342;28;20095;-74
2021/09/19 02:02:43;;;;;;;7.15;1.20;;;20.90;51.30;;;;;;5004631;28;20030;-62
2021/09/19 02:05:12;;;;;;;6.07;1.55;;;21.30;49.70;;;;;;5007598;28;20018;-63
2021/09/19 02:07:40;;;;;;;5.63;1.10;;;21.40;47.90;;;;;;5007689;28;20040;-65
2021/09/19 02:10:13;;;;;;;3.25;1.38;;;21.50;49.60;;;;;;5007426;28;20108;-64
2021/09/19 02:12:43;;;;;;;5.65;1.10;;;21.70;46.00;;;;;;5007549;28;20052;-59
2021/09/19 02:15:12;;;;;;;4.07;1.38;;;21.70;46.10;;;;;;5007809;28;20034;-59
2021/09/19 02:17:40;;;;;;;6.50;0.90;;;21.70;48.30;;;;;;5007674;28;20030;-64
2021/09/19 02:20:10;;;;;;;4.57;1.67;;;21.70;48.50;;;;;;4990009;28;20038;-61
2021/09/19 02:22:38;;;;;;;9.13;1.50;;;21.70;46.10;;;;;;5007082;28;20380;-65
2021/09/19 02:25:07;;;;;;;2.70;1.20;;;21.70;45.80;;;;;;5007487;28;20124;-64
2021/09/19 02:27:35;;;;;;;2.40;0.80;;;21.70;46.30;;;;;;5007344;28;20534;-68
2021/09/19 02:30:08;;;;;;;5.43;1.30;;;21.80;47.10;;;;;;5006978;28;20030;-61
2021/09/19 02:32:36;;;;;;;4.63;1.08;;;21.80;44.40;;;;;;4997245;28;20508;-53
2021/09/19 02:35:06;;;;;;;4.03;1.65;;;22.10;44.80;;;;;;5010871;28;20026;-54
2021/09/19 02:37:35;;;;;;;2.72;1.20;;;22.30;44.00;;;;;;5011668;28;20087;-59
2021/09/19 02:40:03;;;;;;;7.28;1.35;;;22.20;45.90;;;;;;5011542;28;20120;-62
2021/09/19 02:42:30;;;;;;;3.50;1.45;;;22.30;44.70;;;;;;5010883;28;20385;-63
2021/09/19 02:44:58;;;;;;;5.32;1.23;;;22.00;47.00;;;;;;5002412;28;20038;-67
2021/09/19 02:47:26;;;;;;;2.28;1.00;;;21.90;46.00;;;;;;5007638;28;20056;-61
2021/09/19 02:49:54;;;;;;;4.25;1.08;;;21.60;46.70;;;;;;5006316;28;20062;-67
2021/09/19 02:52:22;;;;;;;3.10;1.20;;;21.60;46.40;;;;;;5008604;28;20080;-64
2021/09/19 02:54:49;;;;;;;2.55;1.00;;;21.50;47.80;;;;;;5008165;28;20063;-69
2021/09/19 02:57:18;;;;;;;2.30;1.00;;;21.60;48.70;;;;;;5007958;28;20123;-64
2021/09/19 02:59:45;;;;;;;3.55;1.27;;;21.60;47.60;;;;;;5005841;28;20018;-64
2021/09/19 03:02:13;;;;;;;7.80;1.58;;;21.80;45.40;;;;;;5008484;28;20038;-66
2021/09/19 03:04:40;;;;;;;5.13;1.10;;;22.00;45.70;;;;;;4987777;28;20529;-60
2021/09/19 03:07:07;;;;;;;7.20;0.95;;;22.00;48.00;;;;;;4990220;28;20074;-63
2021/09/19 03:09:59;;;;;;;2.40;1.02;;;21.90;48.70;;;;;;5011537;28;20022;-71
2021/09/19 03:12:30;;;;;;;2.70;1.00;;;22.00;48.20;;;;;;4993114;28;20141;-62
2021/09/19 03:15:35;;;;;;;3.30;1.10;;;21.70;47.90;;;;;;4994935;28;20033;-65
2021/09/19 03:18:08;;;;;;;4.72;1.40;;;21.90;49.00;;;;;;4901834;28;20040;-62
2021/09/19 03:20:36;;;;;;;3.17;1.02;;;21.90;47.40;;;;;;4995019;28;20120;-59
2021/09/19 03:23:17;;;;;;;4.85;1.08;;;22.00;48.10;;;;;;4994887;28;20104;-64
2021/09/19 03:25:44;;;;;;;4.95;0.95;;;22.00;48.20;;;;;;4993896;28;20056;-68
2021/09/19 03:28:12;;;;;;;3.38;0.98;;;22.10;45.70;;;;;;4994975;28;20207;-68
2021/09/19 03:30:39;;;;;;;6.72;1.48;;;22.10;47.80;;;;;;4991430;28;20030;-67
2021/09/19 03:33:07;;;;;;;2.63;1.00;;;22.00;47.70;;;;;;4991306;28;20026;-70
2021/09/19 03:35:35;;;;;;;3.22;1.08;;;22.10;46.90;;;;;;5009743;28;20029;-64
2021/09/19 03:38:09;;;;;;;2.25;1.08;;;22.10;47.50;;;;;;5010841;28;20026;-64
2021/09/19 03:40:40;;;;;;;2.17;1.10;;;22.20;45.90;;;;;;4993655;28;20018;-61
2021/09/19 03:43:08;;;;;;;3.55;1.10;;;22.40;45.60;;;;;;4998500;28;20064;-62
2021/09/19 03:45:59;;;;;;;4.75;1.02;;;22.40;46.50;;;;;;5010669;28;20030;-58
2021/09/19 03:48:34;;;;;;;3.60;1.10;;;22.30;47.30;;;;;;4994183;28;20033;-64
2021/09/19 03:55:45;;;;;;;2.95;1.10;;;22.50;47.00;;;;;;4972809;28;20046;-59
2021/09/19 03:58:56;;;;;;;2.47;1.02;;;22.40;46.40;;;;;;4967440;28;20037;-62
2021/09/19 04:01:24;;;;;;;1.90;1.05;;;22.40;47.10;;;;;;4958290;28;20029;-69
2021/09/19 04:03:52;;;;;;;3.10;1.15;;;22.20;47.80;;;;;;4994803;28;20030;-68
2021/09/19 04:06:20;;;;;;;4.18;1.13;;;22.20;47.80;;;;;;5010799;28;20029;-67
2021/09/19 04:08:57;;;;;;;2.38;0.82;;;22.20;47.80;;;;;;4987040;28;20082;-66
2021/09/19 04:11:28;;;;;;;2.53;1.17;;;22.10;47.40;;;;;;5006493;28;20038;-65
2021/09/19 04:13:59;;;;;;;6.15;1.40;;;22.40;46.30;;;;;;4988848;28;20030;-63
2021/09/19 04:16:30;;;;;;;3.33;1.10;;;22.20;47.10;;;;;;5008092;28;20423;-67
2021/09/19 04:18:58;;;;;;;2.30;0.80;;;22.30;47.10;;;;;;5006125;28;20132;-73
2021/09/19 04:21:25;;;;;;;4.63;0.93;;;22.30;47.10;;;;;;5007121;28;20030;-61
2021/09/19 04:23:53;;;;;;;3.72;1.13;;;22.50;44.70;;;;;;5005335;28;20022;-63
2021/09/19 04:26:21;;;;;;;4.35;1.40;;;22.50;46.40;;;;;;5007435;28;20030;-62
2021/09/19 04:28:48;;;;;;;4.43;1.33;;;22.50;43.70;;;;;;5004798;28;20065;-61
2021/09/19 04:31:16;;;;;;;3.33;1.00;;;22.50;46.80;;;;;;5007308;28;20524;-64
2021/09/19 04:33:43;;;;;;;3.05;1.00;;;22.50;46.50;;;;;;4988886;28;20033;-65
2021/09/19 04:36:11;;;;;;;1.98;0.98;;;22.40;46.90;;;;;;5006937;28;20151;-52
2021/09/19 04:38:38;;;;;;;3.42;1.27;;;22.40;47.20;;;;;;5002513;28;20034;-59
2021/09/19 04:41:06;;;;;;;2.72;1.15;;;22.40;47.10;;;;;;5007484;28;20026;-63
2021/09/19 04:43:36;;;;;;;1.77;1.15;;;22.50;46.20;;;;;;5007748;28;20026;-64
2021/09/19 04:46:03;;;;;;;8.55;1.83;;;22.50;46.50;;;;;;5010833;28;20021;-60
2021/09/19 04:48:34;;;;;;;2.00;0.82;;;22.40;46.50;;;;;;5007945;28;20604;-64
2021/09/19 04:51:01;;;;;;;4.82;1.45;;;22.30;47.30;;;;;;5012148;28;20041;-70
2021/09/19 04:53:28;;;;;;;3.05;1.20;;;22.50;46.40;;;;;;5010753;28;20463;-63
2021/09/19 04:55:56;;;;;;;3.28;1.15;;;22.60;45.90;;;;;;5011021;28;20103;-65
2021/09/19 04:58:23;;;;;;;3.30;1.15;;;22.70;46.50;;;;;;5016027;28;20380;-60
2021/09/19 05:00:51;;;;;;;4.47;1.00;;;22.60;46.30;;;;;;5015198;28;20495;-63
2021/09/19 05:03:34;;;;;;;4.65;1.50;;;22.60;46.40;;;;;;5014457;28;20052;-61
2021/09/19 05:06:02;;;;;;;3.88;1.33;;;22.40;47.30;;;;;;5013785;28;20025;-63
2021/09/19 05:08:30;;;;;;;10.40;1.60;;;22.40;47.70;;;;;;5013291;28;20060;-63
2021/09/19 05:10:58;;;;;;;7.30;1.48;;;22.50;46.10;;;;;;5013629;28;20034;-64
2021/09/19 05:13:29;;;;;;;2.65;0.98;;;22.50;46.40;;;;;;5012694;28;20037;-64
2021/09/19 05:15:56;;;;;;;2.97;1.10;;;22.50;46.10;;;;;;5014331;28;20079;-64
2021/09/19 05:18:24;;;;;;;2.95;0.95;;;22.50;46.70;;;;;;4992899;28;20119;-63
2021/09/19 05:20:51;;;;;;;4.97;1.25;;;22.60;45.70;;;;;;5014256;28;20022;-71
2021/09/19 05:23:19;;;;;;;4.38;1.30;;;22.60;47.30;;;;;;4996616;28;20476;-61
2021/09/19 05:25:46;;;;;;;5.05;1.02;;;22.60;47.00;;;;;;5013299;28;20050;-69
2021/09/19 05:28:16;;;;;;;3.50;1.13;;;22.50;46.50;;;;;;4997204;28;20082;-62
2021/09/19 05:30:43;;;;;;;4.75;1.33;;;22.50;47.80;;;;;;5013452;28;20037;-69
2021/09/19 05:33:11;;;;;;;5.68;1.23;;;22.60;47.80;;;;;;5015541;28;20144;-64
2021/09/19 05:35:44;;;;;;;4.07;1.88;;;22.70;45.30;;;;;;4998509;28;20037;-68
2021/09/19 05:38:12;;;;;;;4.72;1.58;;;22.60;46.80;;;;;;5005129;28;20049;-69
2021/09/19 05:40:41;;;;;;;2.75;1.40;;;22.50;44.50;;;;;;4993072;28;20030;-64
2021/09/19 05:43:08;;;;;;;2.85;0.95;;;22.50;47.40;;;;;;5011722;28;20083;-66
2021/09/19 05:45:35;;;;;;;3.70;1.17;;;22.70;46.30;;;;;;5011797;28;20022;-72
2021/09/19 05:48:03;;;;;;;5.43;1.20;;;22.50;47.30;;;;;;4992193;28;20472;-70
2021/09/19 05:50:33;;;;;;;3.25;1.23;;;22.50;43.10;;;;;;4989119;28;20374;-64
2021/09/19 05:53:01;;;;;;;3.90;1.50;;;22.20;48.70;;;;;;4982342;28;20078;-72
2021/09/19 05:55:28;;;;;;;2.75;1.10;;;22.40;47.10;;;;;;4986439;28;20102;-64
2021/09/19 05:57:56;;;;;;;3.35;1.50;;;23.00;42.40;;;;;;4986684;28;20026;-73
2021/09/19 06:00:26;;;;;;;3.15;1.00;;;22.70;47.10;;;;;;4985836;28;20057;-71
2021/09/19 06:02:54;;;;;;;6.95;1.80;;;22.50;43.10;;;;;;4976977;28;20027;-68
2021/09/19 06:05:22;;;;;;;8.50;1.60;;;22.50;47.10;;;;;;4984600;28;20079;-73
2021/09/19 06:08:16;;;;;;;3.38;1.20;;;23.00;43.30;;;;;;4986752;28;20027;-67
2021/09/19 06:10:47;;;;;;;7.88;1.40;;;23.00;43.60;;;;;;4958262;28;20080;-70
2021/09/19 06:13:18;;;;;;;4.93;1.30;;;23.00;41.30;;;;;;4969719;28;20026;-73
2021/09/19 06:15:52;;;;;;;5.88;1.13;;;22.90;40.70;;;;;;4975998;28;20059;-65
2021/09/19 06:18:20;;;;;;;5.03;1.30;;;22.60;42.50;;;;;;4978225;28;20049;-62
2021/09/19 06:20:47;;;;;;;3.92;0.88;;;22.50;46.50;;;;;;4983323;28;20030;-67
2021/09/19 06:23:15;;;;;;;3.38;1.08;;;22.30;46.10;;;;;;4980616;28;20465;-66
2021/09/19 06:25:44;;;;;;;3.20;1.00;;;22.20;46.20;;;;;;4984947;28;20026;-64
2021/09/19 06:28:12;;;;;;;4.93;1.30;;;22.10;46.60;;;;;;4975689;28;20034;-68
2021/09/19 06:30:39;;;;;;;3.13;1.02;;;22.10;46.60;;;;;;4974882;28;20031;-75
2021/09/19 06:33:07;;;;;;;2.38;0.90;;;22.10;46.00;;;;;;4975576;28;20109;-70
2021/09/19 06:35:34;;;;;;;2.83;1.15;;;22.10;47.60;;;;;;4973960;28;20520;-68
2021/09/19 06:38:02;;;;;;;3.67;0.90;;;22.00;45.20;;;;;;4974225;28;20030;-68
2021/09/19 06:40:29;;;;;;;2.13;1.00;;;22.00;46.00;;;;;;4974121;28;20031;-72
2021/09/19 06:42:57;;;;;;;2.35;0.95;;;22.00;46.90;;;;;;4975911;28;20110;-72
2021/09/19 06:45:24;;;;;;;3.75;1.13;;;22.00;46.10;;;;;;4976810;28;20080;-71
2021/09/19 06:47:52;;;;;;;3.03;1.27;;;22.00;47.30;;;;;;4976894;28;20093;-70
2021/09/19 06:50:19;;;;;;;6.72;1.45;;;22.00;46.80;;;;;;4999604;28;20038;-72
2021/09/19 06:52:47;;;;;;;3.80;1.05;;;21.90;47.90;;;;;;4998474;28;20125;-69
2021/09/19 06:55:14;;;;;;;2.33;0.95;;;21.80;46.50;;;;;;5014699;28;20166;-69
2021/09/19 06:57:42;;;;;;;2.92;1.48;;;21.80;48.60;;;;;;4997913;28;20033;-69
2021/09/19 07:00:09;;;;;;;4.95;1.45;;;21.60;46.50;;;;;;5012713;28;20014;-67
2021/09/19 07:02:37;;;;;;;3.83;1.50;;;21.60;48.90;;;;;;5013036;28;20021;-74
2021/09/19 07:05:05;;;;;;;2.05;0.95;;;21.50;48.70;;;;;;5012712;28;20030;-68
2021/09/19 07:07:32;;;;;;;2.95;1.35;;;21.50;49.40;;;;;;5011784;28;20484;-72
2021/09/19 07:10:00;;;;;;;4.45;2.42;;;21.40;48.30;;;;;;5013435;28;20030;-74
2021/09/19 07:12:27;;;;;;;2.35;1.02;;;21.50;48.20;;;;;;5013066;28;20030;-71
2021/09/19 07:14:54;;;;;;;2.72;1.15;;;21.50;49.60;;;;;;5013509;28;20386;-68
2021/09/19 07:17:22;;;;;;;3.15;1.00;;;21.50;49.40;;;;;;5011785;28;20030;-69
2021/09/19 07:19:49;;;;;;;2.80;1.42;;;21.50;47.60;;;;;;5011288;28;20071;-70
2021/09/19 07:22:16;;;;;;;2.88;1.30;;;21.40;49.30;;;;;;5011221;28;20084;-68
2021/09/19 07:24:44;;;;;;;3.08;1.15;;;21.40;48.60;;;;;;5011322;28;20029;-67
2021/09/19 07:27:15;;;;;;;5.22;1.17;;;21.30;48.40;;;;;;5011027;28;20026;-71
2021/09/19 07:29:42;;;;;;;3.72;0.80;;;21.30;46.70;;;;;;5011083;28;20024;-70
2021/09/19 07:32:12;;;;;;;3.42;1.42;;;21.30;50.10;;;;;;5011213;28;20068;-66
2021/09/19 07:34:41;;;;;;;2.55;1.08;;;21.20;49.10;;;;;;5000707;28;20060;-60
2021/09/19 07:37:10;;;;;;;2.60;1.08;;;21.20;50.30;;;;;;5007320;28;20628;-64
2021/09/19 07:39:38;;;;;;;1.90;1.08;;;21.20;50.10;;;;;;5006737;28;20063;-69
2021/09/19 07:42:06;;;;;;;3.28;0.93;;;21.20;50.20;;;;;;4992132;28;20064;-61
2021/09/19 07:44:49;;;;;;;1.85;1.02;;;21.10;47.80;;;;;;5008522;28;20022;-58
2021/09/19 07:48:04;;;;;;;2.28;1.00;;;21.10;50.10;;;;;;5008595;28;20476;-62
2021/09/19 07:50:48;;;;;;;2.13;1.10;;;21.00;49.80;;;;;;5003323;28;20042;-64
2021/09/19 07:53:18;;;;;;;1.92;0.95;;;21.00;50.40;;;;;;5009153;28;20042;-66
2021/09/19 07:55:46;;;;;;;2.70;1.00;;;20.90;49.10;;;;;;5007904;28;20071;-62
2021/09/19 07:58:17;;;;;;;2.58;1.20;;;20.90;50.70;;;;;;5008890;28;20481;-66
2021/09/19 08:00:44;;;;;;;3.35;1.30;;;20.90;50.10;;;;;;5005912;28;20481;-64
2021/09/19 08:03:12;;;;;;;5.38;1.67;;;20.90;50.00;;;;;;5007928;28;20079;-64
2021/09/19 08:05:39;;;;;;;3.42;1.88;;;20.80;49.20;;;;;;5006265;28;20487;-58
2021/09/19 08:08:07;;;;;;;4.47;2.40;;;20.80;50.80;;;;;;5007551;28;20026;-68
2021/09/19 08:10:34;;;;;;;3.58;2.28;;;20.80;51.50;;;;;;5003743;28;20492;-68
2021/09/19 08:13:02;;;;;;;5.38;2.67;;;20.80;50.50;;;;;;5007722;28;20037;-65
2021/09/19 08:15:32;;;;;;;4.05;2.08;;;20.80;51.20;;;;;;5006677;28;20022;-66
2021/09/19 08:18:00;;;;;;;4.15;2.13;;;20.70;51.50;;;;;;5007625;28;21376;-68
2021/09/19 08:20:27;;;;;;;5.22;2.63;;;20.60;52.30;;;;;;5005604;28;20038;-65
2021/09/19 08:22:55;;;;;;;5.05;2.72;;;20.70;51.80;;;;;;5011083;28;20018;-66
2021/09/19 08:25:25;;;;;;;7.95;3.42;;;20.70;49.30;;;;;;5010229;28;20022;-63
2021/09/19 08:28:12;;;;;;;4.15;2.72;;;20.60;50.40;;;;;;5010982;28;20026;-59
2021/09/19 08:30:46;;;;;;;7.20;2.80;;;20.60;51.00;;;;;;5005944;28;20029;-60
2021/09/19 08:33:14;;;;;;;4.75;2.70;;;20.50;51.80;;;;;;4994279;28;20078;-67
2021/09/19 08:35:41;;;;;;;5.32;2.88;;;20.50;53.20;;;;;;5010468;28;20022;-64
2021/09/19 08:38:12;;;;;;;5.93;2.38;;;20.50;52.00;;;;;;5008834;28;20030;-64
2021/09/19 08:40:39;;;;;;;3.50;2.05;;;20.40;53.40;;;;;;5006422;28;20022;-69
2021/09/19 08:43:07;;;;;;;6.78;2.08;;;20.40;52.70;;;;;;5010336;28;20022;-60
2021/09/19 08:45:35;;;;;;;3.47;2.00;;;20.40;50.70;;;;;;5011149;28;20097;-61
2021/09/19 08:48:03;;;;;;;5.05;2.40;;;20.40;52.50;;;;;;5007537;28;20067;-70
2021/09/19 08:50:30;;;;;;;3.75;2.13;;;20.30;53.40;;;;;;4986773;28;20509;-69
2021/09/19 08:53:02;;;;;;;4.28;2.00;;;20.20;53.90;;;;;;5010835;28;20496;-68
2021/09/19 08:55:29;;;;;;;3.63;1.90;;;20.20;52.60;;;;;;5007828;28;20026;-66
2021/09/19 08:57:57;;;;;;;6.53;2.40;;;20.20;52.90;;;;;;5007701;28;20885;-68
2021/09/19 09:00:26;;;;;;;9.65;3.60;;;20.20;52.90;;;;;;5006356;28;20030;-60
2021/09/19 09:02:55;;;;;;;8.98;3.95;;;20.20;51.90;;;;;;5007210;28;20022;-61
2021/09/19 09:05:25;;;;;;;8.63;4.65;;;20.30;51.70;;;;;;5005522;28;20071;-62
2021/09/19 09:07:55;;;;;;;9.40;5.03;;;20.20;52.90;;;;;;5007429;28;20037;-64
2021/09/19 09:10:46;;;;;;;15.45;6.45;;;20.20;52.10;;;;;;5005176;28;20078;-61
2021/09/19 09:13:35;;;;;;;11.95;6.05;;;20.20;53.40;;;;;;5006865;28;20041;-66
2021/09/19 09:16:07;;;;;;;12.52;5.72;;;20.20;53.70;;;;;;4988586;28;20018;-62
2021/09/19 09:18:35;;;;;;;12.52;6.70;;;20.20;54.30;;;;;;5007059;28;20038;-61
2021/09/19 09:21:26;;;;;;;15.73;6.57;;;20.10;53.40;;;;;;5010015;28;20030;-62
2021/09/19 09:23:56;;;;;;;12.63;6.35;;;20.10;53.80;;;;;;5009357;28;20022;-69
2021/09/19 09:26:33;;;;;;;12.27;6.35;;;20.10;53.20;;;;;;5010130;28;20394;-65
2021/09/19 09:29:08;;;;;;;13.30;6.10;;;20.10;53.90;;;;;;4987838;28;20441;-59
2021/09/19 09:31:41;;;;;;;14.02;6.95;;;20.10;52.40;;;;;;5007857;28;20459;-59
2021/09/19 09:34:10;;;;;;;13.18;6.88;;;20.10;54.30;;;;;;5009126;28;20469;-65
2021/09/19 09:37:01;;;;;;;12.73;5.75;;;20.00;54.30;;;;;;5008754;28;20484;-66
2021/09/19 09:39:30;;;;;;;14.23;6.50;;;20.00;52.10;;;;;;5004401;28;20044;-70
2021/09/19 09:42:01;;;;;;;13.25;6.53;;;20.00;52.10;;;;;;5010459;28;20053;-65
2021/09/19 09:44:36;;;;;;;11.30;5.25;;;20.00;55.60;;;;;;5008782;28;20048;-62
2021/09/19 09:47:16;;;;;;;11.23;5.53;;;20.00;50.40;;;;;;5010052;28;20388;-61
2021/09/19 09:49:56;;;;;;;10.88;6.72;;;20.00;55.00;;;;;;5004753;28;20042;-62
2021/09/19 09:52:34;;;;;;;12.77;6.68;;;19.90;53.40;;;;;;5009470;28;20034;-66
2021/09/19 09:55:10;;;;;;;12.23;6.05;;;19.90;53.00;;;;;;5011138;28;20052;-66
2021/09/19 09:57:48;;;;;;;10.88;6.15;;;19.90;51.90;;;;;;5010388;28;20037;-68
2021/09/19 10:00:21;;;;;;;10.18;5.28;;;19.90;52.90;;;;;;5003906;28;20172;-71
2021/09/19 10:02:51;;;;;;;11.25;5.47;;;19.90;52.60;;;;;;5009632;28;20049;-68
2021/09/19 10:05:19;;;;;;;12.57;6.22;;;19.80;52.70;;;;;;5009295;28;20026;-68
2021/09/19 10:07:48;;;;;;;14.85;6.25;;;19.80;50.60;;;;;;5009166;28;20469;-67
2021/09/19 10:10:18;;;;;;;13.02;6.15;;;19.70;53.80;;;;;;5005985;28;20041;-66
2021/09/19 10:12:47;;;;;;;11.60;5.63;;;19.70;54.30;;;;;;5007989;28;20042;-68
2021/09/19 10:15:16;;;;;;;11.57;5.95;;;19.70;53.00;;;;;;5009802;28;20022;-69
2021/09/19 10:17:44;;;;;;;11.77;5.70;;;19.60;54.90;;;;;;5011821;28;20026;-67
2021/09/19 10:20:18;;;;;;;10.52;6.28;;;19.60;53.30;;;;;;5011831;28;20030;-66
2021/09/19 10:23:09;;;;;;;11.45;5.88;;;19.60;54.40;;;;;;5011829;28;20036;-67
2021/09/19 10:25:43;;;;;;;12.30;5.40;;;19.60;53.40;;;;;;5012028;28;20101;-65
2021/09/19 10:28:38;;;;;;;9.80;5.13;;;19.60;51.20;;;;;;5011448;28;20380;-67
2021/09/19 10:31:33;;;;;;;11.63;4.63;;;19.50;55.40;;;;;;5000859;28;20395;-60
2021/09/19 10:34:06;;;;;;;8.23;4.35;;;19.50;52.50;;;;;;4979266;28;20183;-66
2021/09/19 10:36:40;;;;;;;13.30;4.93;;;19.50;53.10;;;;;;5010659;28;20380;-66
2021/09/19 10:39:15;;;;;;;12.00;5.10;;;19.50;53.50;;;;;;5010896;28;20026;-63
2021/09/19 10:42:04;;;;;;;9.30;4.60;;;19.50;51.70;;;;;;5010691;28;20387;-70
2021/09/19 10:44:44;;;;;;;9.95;5.32;;;19.50;53.10;;;;;;5010584;28;20034;-64
2021/09/19 10:47:30;;;;;;;11.35;6.03;;;19.40;52.10;;;;;;5010819;28;20086;-65
2021/09/19 10:50:38;;;;;;;13.45;4.70;;;19.40;55.70;;;;;;5010427;28;20049;-66
2021/09/19 10:53:17;;;;;;;10.32;5.50;;;19.40;55.00;;;;;;5008311;28;20049;-64
2021/09/19 10:55:53;;;;;;;8.52;5.32;;;19.40;54.60;;;;;;5010787;28;20052;-63
2021/09/19 10:58:23;;;;;;;11.13;5.32;;;19.30;56.20;;;;;;5010511;28;20032;-63
2021/09/19 11:01:17;;;;;;;12.95;4.28;;;19.30;54.80;;;;;;5010091;28;20026;-64
2021/09/19 11:03:47;;;;;;;12.73;6.05;;;19.30;56.00;;;;;;5010799;28;20101;-64
2021/09/19 11:06:41;;;;;;;8.43;4.80;;;19.30;54.80;;;;;;5010744;28;20018;-65
2021/09/19 11:09:27;;;;;;;8.63;4.40;;;19.30;54.50;;;;;;5001141;28;20034;-64
2021/09/19 11:12:10;;;;;;;7.18;3.92;;;19.30;54.40;;;;;;5008463;28;20102;-65
2021/09/19 11:15:01;;;;;;;9.10;4.53;;;19.30;51.30;;;;;;5001520;28;20029;-66
2021/09/19 11:17:31;;;;;;;9.40;4.73;;;19.30;54.90;;;;;;5004979;28;20451;-64
2021/09/19 11:20:14;;;;;;;9.77;4.85;;;19.30;55.30;;;;;;5007986;28;20022;-67
2021/09/19 11:22:46;;;;;;;8.70;4.13;;;19.30;54.90;;;;;;5005567;28;20105;-67
2021/09/19 11:25:16;;;;;;;7.72;4.25;;;19.30;54.60;;;;;;5005685;28;20033;-69
2021/09/19 11:27:45;;;;;;;11.65;3.55;;;19.30;54.50;;;;;;5005855;28;20076;-68
2021/09/19 11:30:17;;;;;;;10.98;4.82;;;19.30;52.70;;;;;;5007934;28;20029;-61
2021/09/19 11:32:46;;;;;;;7.28;4.10;;;19.20;55.30;;;;;;5007832;28;20030;-65
2021/09/19 11:35:14;;;;;;;6.53;4.18;;;19.30;55.30;;;;;;5007965;28;20108;-64
2021/09/19 11:37:41;;;;;;;7.47;4.30;;;19.20;55.60;;;;;;5005062;28;20038;-67
2021/09/19 11:40:21;;;;;;;6.97;3.90;;;19.20;54.10;;;;;;5007735;28;20033;-66
2021/09/19 11:42:51;;;;;;;7.75;4.65;;;19.20;55.20;;;;;;5005235;28;20033;-65
2021/09/19 11:45:19;;;;;;;7.78;4.60;;;19.20;54.90;;;;;;5007266;28;20026;-65
2021/09/19 11:47:48;;;;;;;6.38;3.85;;;19.20;55.00;;;;;;4985674;28;20045;-65
2021/09/19 11:50:15;;;;;;;8.20;4.25;;;19.20;54.40;;;;;;5008815;28;20058;-67
2021/09/19 11:52:42;;;;;;;7.60;3.92;;;19.20;55.30;;;;;;5006650;28;20352;-69
2021/09/19 11:55:10;;;;;;;7.70;4.20;;;19.20;55.10;;;;;;4990021;28;20384;-65
2021/09/19 11:57:37;;;;;;;10.27;4.22;;;19.20;54.90;;;;;;5004557;28;20037;-58
2021/09/19 12:00:11;;;;;;;6.55;3.22;;;19.10;55.10;;;;;;5006679;28;20499;-68
2021/09/19 12:02:41;;;;;;;7.50;3.78;;;19.10;54.80;;;;;;5007137;28;20029;-64
2021/09/19 12:05:09;;;;;;;5.63;3.60;;;19.10;55.30;;;;;;4991558;28;20337;-67
2021/09/19 12:07:37;;;;;;;6.80;4.00;;;19.10;54.80;;;;;;5005319;28;20415;-57
2021/09/19 12:10:05;;;;;;;6.93;3.42;;;19.10;54.70;;;;;;5006344;28;20105;-59
2021/09/19 12:12:32;;;;;;;8.00;3.85;;;19.10;54.00;;;;;;4990457;28;20392;-63
2021/09/19 12:15:00;;;;;;;8.68;3.38;;;19.10;55.50;;;;;;5007703;28;20026;-66
2021/09/19 12:17:30;;;;;;;7.05;4.15;;;19.10;55.60;;;;;;5004442;28;20038;-64
2021/09/19 12:19:59;;;;;;;6.22;3.65;;;19.10;55.20;;;;;;5007308;28;21184;-66
2021/09/19 12:22:28;;;;;;;7.28;3.47;;;19.10;55.90;;;;;;5007788;28;20049;-67
2021/09/19 12:25:05;;;;;;;6.97;3.33;;;19.00;55.60;;;;;;4989780;28;20117;-67
2021/09/19 12:27:35;;;;;;;5.95;3.50;;;19.00;55.30;;;;;;5003500;28;20052;-65
2021/09/19 12:30:16;;;;;;;6.97;3.45;;;19.10;55.80;;;;;;5008024;28;20094;-71
2021/09/19 12:32:46;;;;;;;5.85;3.17;;;19.10;54.60;;;;;;5007054;28;20038;-66
2021/09/19 12:35:17;;;;;;;5.68;3.22;;;19.00;54.90;;;;;;5007305;28;20029;-65
2021/09/19 12:37:48;;;;;;;5.13;2.95;;;19.10;54.70;;;;;;5004201;28;20032;-71
2021/09/19 12:40:25;;;;;;;7.25;3.63;;;19.00;54.50;;;;;;5007219;28;20022;-75
2021/09/19 12:43:03;;;;;;;6.18;3.25;;;19.00;55.30;;;;;;5007295;28;20038;-67
2021/09/19 12:45:30;;;;;;;5.80;3.40;;;19.00;54.50;;;;;;4988374;28;20022;-66
2021/09/19 12:47:58;;;;;;;4.90;3.03;;;19.00;55.50;;;;;;5003169;28;20083;-63
2021/09/19 12:50:27;;;;;;;5.72;3.85;;;19.00;55.40;;;;;;5007027;28;20130;-64
2021/09/19 12:52:58;;;;;;;5.63;3.35;;;19.00;55.20;;;;;;5006977;28;20147;-64
2021/09/19 12:55:26;;;;;;;7.17;3.50;;;19.00;55.50;;;;;;5006268;28;20038;-64
2021/09/19 12:57:54;;;;;;;5.78;2.97;;;18.90;55.20;;;;;;5003689;28;20033;-66
2021/09/19 13:00:27;;;;;;;6.47;3.15;;;18.90;56.10;;;;;;5006813;28;20026;-67
2021/09/19 13:03:00;;;;;;;6.80;3.60;;;18.90;55.90;;;;;;5007213;28;20026;-64
2021/09/19 13:05:27;;;;;;;5.35;2.90;;;18.90;55.90;;;;;;5011236;28;20032;-69
2021/09/19 13:07:55;;;;;;;6.60;2.80;;;18.90;55.80;;;;;;5006443;28;20079;-63
2021/09/19 13:10:22;;;;;;;6.32;3.35;;;18.80;55.90;;;;;;5015281;28;20026;-69